logo
Search for airport 
image banner adimage banner adimage banner ad
image banner ad

SQCT - Campo Estero

Located in , Colombia

ICAO - , IATA -

Data provided by Airmate  

General information

Coordinates: N4°40'35" W72°7'25"
Elevation is 530 feet MSL.
Magnetic variation is -9° East
View others Airports in Casanare

Operational data

Special qualification required
Current time UTC:
Current local time:
Weather at : - ( 0 km )
METAR: KBKF 151958Z 00000KT 10SM SCT080 BKN140 BKN220 32/02 A3013 RMK AO2A LTG DSNT SW SLP104 T03240024
View NOTAMs / SUP AIP / TFR affecting this airport [VIEW]
Communications frequencies: [VIEW]

Runways:

RWY identifierQFULength (ft)Width (ft)SurfaceLDA (ft)
0979°264581GRAS
27259°264581GRAS

Airport contact information

Address: Colombia

Satellite view of SQCT